createdAt,value
2018-08-09T00:00:10.354Z,77.60
2018-08-09T00:02:39.073Z,77.60
2018-08-09T00:05:07.784Z,77.70
2018-08-09T00:07:36.582Z,77.00
2018-08-09T00:10:05.795Z,77.80
2018-08-09T00:12:34.562Z,78.20
2018-08-09T00:15:03.376Z,78.50
2018-08-09T00:17:32.158Z,78.50
2018-08-09T00:20:00.969Z,78.90
2018-08-09T00:22:29.793Z,79.00
2018-08-09T00:24:58.645Z,78.70
2018-08-09T00:27:27.445Z,77.70
2018-08-09T00:29:56.239Z,78.10
2018-08-09T00:32:25.028Z,79.40
2018-08-09T00:34:53.821Z,79.60
2018-08-09T00:37:22.555Z,79.30
2018-08-09T00:39:51.343Z,79.50
2018-08-09T00:42:20.233Z,79.50
2018-08-09T00:45:00.848Z,79.90
2018-08-09T00:47:29.629Z,80.10
2018-08-09T00:49:58.325Z,80.50
2018-08-09T00:52:27.109Z,80.30
2018-08-09T00:54:55.804Z,80.50
2018-08-09T00:57:24.622Z,80.80
2018-08-09T00:59:53.320Z,81.20
2018-08-09T01:02:22.078Z,81.00
2018-08-09T01:04:50.837Z,81.10
2018-08-09T01:07:19.592Z,81.10
2018-08-09T01:09:48.477Z,81.10
2018-08-09T01:12:17.156Z,81.10
2018-08-09T01:14:45.941Z,80.90
2018-08-09T01:17:14.741Z,81.30
2018-08-09T01:19:43.521Z,81.30
2018-08-09T01:22:12.183Z,81.40
2018-08-09T01:24:41.056Z,81.60
2018-08-09T01:27:10.073Z,81.70
2018-08-09T01:29:40.250Z,82.10
2018-08-09T01:32:09.126Z,82.20
2018-08-09T01:34:37.941Z,82.40
2018-08-09T01:37:07.133Z,82.50
2018-08-09T01:39:35.970Z,82.50
2018-08-09T01:42:16.109Z,82.00
2018-08-09T01:44:44.849Z,82.60
2018-08-09T01:47:13.590Z,82.70
2018-08-09T01:49:42.414Z,82.90
2018-08-09T01:52:11.209Z,83.00
2018-08-09T01:54:52.023Z,83.00
2018-08-09T01:57:20.727Z,82.90
2018-08-09T01:59:49.532Z,83.10
2018-08-09T02:02:18.357Z,82.40
2018-08-09T02:04:47.161Z,83.00
2018-08-09T02:07:15.981Z,83.50
2018-08-09T02:09:44.757Z,83.60
2018-08-09T02:12:13.574Z,84.00
2018-08-09T02:14:42.363Z,84.10
2018-08-09T02:17:12.093Z,84.00
2018-08-09T02:19:40.861Z,84.20
2018-08-09T02:22:09.665Z,83.70
2018-08-09T02:24:38.369Z,84.30
2018-08-09T02:27:07.145Z,84.00
2018-08-09T02:29:35.933Z,84.40
2018-08-09T02:32:04.677Z,84.20
2018-08-09T02:34:33.441Z,84.50
2018-08-09T02:37:02.383Z,85.00
2018-08-09T02:39:31.193Z,85.30
2018-08-09T02:41:59.981Z,85.20
2018-08-09T02:44:28.759Z,85.50
2018-08-09T02:46:57.577Z,85.50
2018-08-09T02:49:26.341Z,86.00
2018-08-09T02:51:55.077Z,85.80
2018-08-09T02:54:30.607Z,86.10
2018-08-09T02:56:59.257Z,86.10
2018-08-09T02:59:28.050Z,86.10
2018-08-09T03:01:56.815Z,86.00
2018-08-09T03:04:25.554Z,86.10
2018-08-09T03:06:54.293Z,86.20
2018-08-09T03:09:23.024Z,86.60
2018-08-09T03:11:51.812Z,86.60
2018-08-09T03:14:20.562Z,86.80
2018-08-09T03:16:49.249Z,86.90
2018-08-09T03:19:17.977Z,86.90
2018-08-09T03:21:46.737Z,87.00
2018-08-09T03:24:15.570Z,87.10
2018-08-09T03:26:44.273Z,87.50
2018-08-09T03:29:13.066Z,87.40
2018-08-09T03:31:41.829Z,87.50
2018-08-09T03:34:10.665Z,87.60
2018-08-09T03:36:39.773Z,87.60
2018-08-09T03:39:09.853Z,87.70
2018-08-09T03:41:38.601Z,88.00
2018-08-09T03:44:07.529Z,88.20
2018-08-09T03:46:37.665Z,88.20
2018-08-09T03:49:06.511Z,88.20
2018-08-09T03:51:35.626Z,88.60
2018-08-09T03:54:04.421Z,88.50
2018-08-09T03:56:33.175Z,89.10
2018-08-09T03:59:02.185Z,89.00
2018-08-09T04:01:31.001Z,89.10
2018-08-09T04:03:59.737Z,89.10
2018-08-09T04:06:28.544Z,89.30
2018-08-09T04:08:57.337Z,89.50
2018-08-09T04:11:26.126Z,89.80
2018-08-09T04:13:54.870Z,89.90
2018-08-09T04:16:23.692Z,90.00
2018-08-09T04:18:52.433Z,90.00
2018-08-09T04:21:21.313Z,90.00
2018-08-09T04:23:50.033Z,90.20
2018-08-09T04:26:18.865Z,89.10
2018-08-09T04:28:47.586Z,89.20
2018-08-09T04:31:26.085Z,89.40
2018-08-09T04:33:54.830Z,89.30
2018-08-09T04:36:23.581Z,89.80
2018-08-09T04:38:52.365Z,90.00
2018-08-09T04:41:21.185Z,90.20
2018-08-09T04:43:49.961Z,90.10
2018-08-09T04:46:18.933Z,90.10
2018-08-09T04:48:47.697Z,90.10
2018-08-09T04:51:16.401Z,90.00
2018-08-09T04:53:45.188Z,89.60
2018-08-09T04:56:13.971Z,90.20
2018-08-09T04:58:42.744Z,90.10
2018-08-09T05:01:11.453Z,90.00
2018-08-09T05:03:40.180Z,90.00
2018-08-09T05:06:08.967Z,90.20
2018-08-09T05:08:37.733Z,90.00
2018-08-09T05:11:06.777Z,90.20
2018-08-09T05:13:35.517Z,90.40
2018-08-09T05:16:04.269Z,90.20
2018-08-09T05:18:33.035Z,90.50
2018-08-09T05:21:01.817Z,90.20
2018-08-09T05:23:30.705Z,90.30
2018-08-09T05:25:59.390Z,90.20
2018-08-09T05:28:28.166Z,90.10
2018-08-09T05:30:56.968Z,90.00
2018-08-09T05:33:25.699Z,89.80
2018-08-09T05:36:17.864Z,89.90
2018-08-09T05:38:46.733Z,90.00
2018-08-09T05:41:15.466Z,90.00
2018-08-09T05:43:44.185Z,90.10
2018-08-09T05:46:12.953Z,90.40
2018-08-09T05:48:41.702Z,90.60
2018-08-09T05:51:12.481Z,90.40
2018-08-09T05:53:41.217Z,90.40
2018-08-09T05:56:09.981Z,90.60
2018-08-09T05:58:45.480Z,90.50
2018-08-09T06:04:10.641Z,90.60
2018-08-09T06:06:54.160Z,90.40
2018-08-09T06:09:22.953Z,90.20
2018-08-09T06:11:51.713Z,90.00
2018-08-09T06:14:20.623Z,90.40
2018-08-09T06:16:49.441Z,90.40
2018-08-09T06:19:18.225Z,91.20
2018-08-09T06:21:47.078Z,91.20
2018-08-09T06:24:17.017Z,90.80
2018-08-09T06:26:45.860Z,91.10
2018-08-09T06:29:14.481Z,90.90
2018-08-09T06:31:43.227Z,90.80
2018-08-09T06:34:12.154Z,90.60
2018-08-09T06:36:40.936Z,90.50
2018-08-09T06:39:09.718Z,90.30
2018-08-09T06:41:47.682Z,90.40
2018-08-09T06:44:17.494Z,90.00
2018-08-09T06:46:52.392Z,90.00
2018-08-09T06:49:21.220Z,89.80
2018-08-09T06:51:49.983Z,89.70
2018-08-09T06:54:18.721Z,89.10
2018-08-09T06:56:47.454Z,88.60
2018-08-09T06:59:21.133Z,88.90
2018-08-09T07:01:49.920Z,89.40
2018-08-09T07:04:18.867Z,89.20
2018-08-09T07:06:48.809Z,88.30
2018-08-09T07:09:18.667Z,88.20
2018-08-09T07:12:01.865Z,88.70
2018-08-09T07:14:30.649Z,88.20
2018-08-09T07:16:59.465Z,88.00
2018-08-09T07:19:28.422Z,87.40
2018-08-09T07:22:04.921Z,87.70
2018-08-09T07:24:33.770Z,87.20
2018-08-09T07:27:04.545Z,86.50
2018-08-09T07:29:40.125Z,86.10
2018-08-09T07:32:15.726Z,84.80
2018-08-09T07:34:44.458Z,83.80
2018-08-09T07:37:13.153Z,83.50
2018-08-09T07:39:41.961Z,82.70
2018-08-09T07:42:10.674Z,82.80
2018-08-09T07:44:39.476Z,83.60
2018-08-09T07:47:08.549Z,81.30
2018-08-09T07:49:42.237Z,81.30
2018-08-09T07:52:11.148Z,79.90
2018-08-09T07:54:39.841Z,80.40
2018-08-09T07:57:24.975Z,79.60
2018-08-09T07:59:53.700Z,79.60
2018-08-09T08:02:22.513Z,79.40
2018-08-09T08:04:51.220Z,78.20
2018-08-09T08:07:19.965Z,78.10
2018-08-09T08:09:59.498Z,77.70
2018-08-09T08:12:28.290Z,76.60
2018-08-09T08:14:58.144Z,76.50
2018-08-09T08:17:26.861Z,76.30
2018-08-09T08:20:02.245Z,75.30
2018-08-09T08:22:36.885Z,75.80
2018-08-09T08:25:06.289Z,75.60
2018-08-09T08:27:35.153Z,73.20
2018-08-09T08:30:06.771Z,74.70
2018-08-09T08:32:35.774Z,73.70
2018-08-09T08:35:04.747Z,72.50
2018-08-09T08:37:33.480Z,73.30
2018-08-09T08:40:02.240Z,71.90
2018-08-09T08:42:31.023Z,71.70
2018-08-09T08:44:59.768Z,70.10
2018-08-09T08:47:28.592Z,67.60
2018-08-09T08:49:57.285Z,67.00
2018-08-09T08:52:26.085Z,67.70
2018-08-09T08:54:54.970Z,66.50
2018-08-09T08:57:23.681Z,66.20
2018-08-09T08:59:52.385Z,64.60
2018-08-09T09:02:21.087Z,64.40
2018-08-09T09:04:49.855Z,61.40
2018-08-09T09:07:18.610Z,61.20
2018-08-09T09:09:53.563Z,61.20
2018-08-09T09:12:29.006Z,59.70
2018-08-09T09:14:57.789Z,60.80
2018-08-09T09:17:29.573Z,60.40
2018-08-09T09:19:58.348Z,59.30
2018-08-09T09:22:27.168Z,60.80
2018-08-09T09:24:55.851Z,59.50
2018-08-09T09:27:25.795Z,59.40
2018-08-09T09:29:54.541Z,58.60
2018-08-09T09:32:23.487Z,59.00
2018-08-09T09:34:54.350Z,59.30
2018-08-09T09:37:23.125Z,59.70
2018-08-09T09:39:51.889Z,58.10
2018-08-09T09:42:20.709Z,57.60
2018-08-09T09:44:49.521Z,57.20
2018-08-09T09:47:19.313Z,57.30
2018-08-09T09:49:48.088Z,55.90
2018-08-09T09:52:16.817Z,56.50
2018-08-09T09:54:45.753Z,54.50
2018-08-09T09:57:14.545Z,56.10
2018-08-09T09:59:50.104Z,56.20
2018-08-09T10:02:18.826Z,54.30
2018-08-09T10:04:47.676Z,53.90
2018-08-09T10:07:16.408Z,53.20
2018-08-09T10:09:45.153Z,53.90
2018-08-09T10:12:13.990Z,54.60
2018-08-09T10:14:42.901Z,54.60
2018-08-09T10:17:11.756Z,54.10
2018-08-09T10:19:40.499Z,53.80
2018-08-09T10:22:09.371Z,52.60
2018-08-09T10:24:38.128Z,51.60
2018-08-09T10:27:06.984Z,52.50
2018-08-09T10:29:35.781Z,52.90
2018-08-09T10:32:04.513Z,52.10
2018-08-09T10:34:33.389Z,52.70
2018-08-09T10:37:02.282Z,52.30
2018-08-09T10:39:31.054Z,51.40
2018-08-09T10:41:59.825Z,52.10
2018-08-09T10:44:28.592Z,52.40
2018-08-09T10:46:57.405Z,52.60
2018-08-09T10:49:26.189Z,50.60
2018-08-09T10:51:55.042Z,50.10
2018-08-09T10:54:23.920Z,50.50
2018-08-09T10:56:52.727Z,50.80
2018-08-09T10:59:21.529Z,49.90
2018-08-09T11:01:50.247Z,50.40
2018-08-09T11:04:18.921Z,50.50
2018-08-09T11:06:47.785Z,51.00
2018-08-09T11:09:16.597Z,50.90
2018-08-09T11:11:45.323Z,50.40
2018-08-09T11:14:14.121Z,51.60
2018-08-09T11:16:42.849Z,50.50
2018-08-09T11:19:11.609Z,50.40
2018-08-09T11:21:40.387Z,50.40
2018-08-09T11:24:19.021Z,51.10
2018-08-09T11:26:47.817Z,48.60
2018-08-09T11:29:16.546Z,49.20
2018-08-09T11:31:53.028Z,49.10
2018-08-09T11:34:21.949Z,50.00
2018-08-09T11:36:50.833Z,49.80
2018-08-09T11:39:19.627Z,48.30
2018-08-09T11:41:48.430Z,48.30
2018-08-09T11:44:17.149Z,48.60
2018-08-09T11:46:52.310Z,48.00
2018-08-09T11:49:21.259Z,47.90
2018-08-09T11:51:50.241Z,47.90
2018-08-09T11:54:21.121Z,47.90
2018-08-09T11:56:49.859Z,47.60
2018-08-09T11:59:18.632Z,47.80
2018-08-09T12:01:47.605Z,46.70
2018-08-09T12:04:16.379Z,46.10
2018-08-09T12:06:52.696Z,45.70
2018-08-09T12:09:21.506Z,46.00
2018-08-09T12:11:53.428Z,46.70
2018-08-09T12:14:22.153Z,47.00
2018-08-09T12:16:50.957Z,46.40
2018-08-09T12:19:19.669Z,47.20
2018-08-09T12:21:48.472Z,46.90
2018-08-09T12:24:17.376Z,47.00
2018-08-09T12:26:46.109Z,46.40
2018-08-09T12:29:14.790Z,45.60
2018-08-09T12:31:43.604Z,45.20
2018-08-09T12:34:12.414Z,46.10
2018-08-09T12:36:41.259Z,44.60
2018-08-09T12:39:11.650Z,43.70
2018-08-09T12:41:40.539Z,44.10
2018-08-09T12:44:09.525Z,44.90
2018-08-09T12:46:38.324Z,43.90
2018-08-09T12:49:07.211Z,44.00
2018-08-09T12:51:35.906Z,45.40
2018-08-09T12:54:04.702Z,44.20
2018-08-09T12:56:33.406Z,43.40
2018-08-09T12:59:02.076Z,44.20
2018-08-09T13:01:40.712Z,44.30
2018-08-09T13:04:09.476Z,42.40
2018-08-09T13:06:38.249Z,42.70
2018-08-09T13:09:08.714Z,42.50
2018-08-09T13:11:37.485Z,42.60
2018-08-09T13:14:06.377Z,42.70
2018-08-09T13:16:35.218Z,42.60
2018-08-09T13:19:03.972Z,42.50
2018-08-09T13:21:32.800Z,42.00
2018-08-09T13:24:01.601Z,42.50
2018-08-09T13:26:30.345Z,43.40
2018-08-09T13:28:59.152Z,42.30
2018-08-09T13:31:27.911Z,43.10
2018-08-09T13:33:56.642Z,42.90
2018-08-09T13:36:25.630Z,42.80
2018-08-09T13:38:54.363Z,43.40
2018-08-09T13:41:23.129Z,43.70
2018-08-09T13:43:51.957Z,43.40
2018-08-09T13:46:20.808Z,42.00
2018-08-09T13:49:01.749Z,43.80
2018-08-09T13:51:30.568Z,48.60
2018-08-09T13:53:59.356Z,59.30
2018-08-09T13:56:28.129Z,65.20
2018-08-09T13:58:56.813Z,73.40
2018-08-09T14:01:25.598Z,81.40
2018-08-09T14:03:54.360Z,86.80
2018-08-09T14:06:23.081Z,91.10
2018-08-09T14:08:51.862Z,91.70
2018-08-09T14:11:20.621Z,92.40
2018-08-09T14:13:49.337Z,91.40
2018-08-09T14:16:18.213Z,92.60
2018-08-09T14:18:46.969Z,91.40
2018-08-09T14:21:15.691Z,91.50
2018-08-09T14:23:45.489Z,91.20
2018-08-09T14:26:14.233Z,90.40
2018-08-09T14:28:42.967Z,90.30
2018-08-09T14:31:12.865Z,89.10
2018-08-09T14:33:41.745Z,90.00
2018-08-09T14:36:10.444Z,90.50
2018-08-09T14:38:39.259Z,91.20
2018-08-09T14:41:14.875Z,93.00
2018-08-09T14:43:43.672Z,94.30
2018-08-09T14:46:31.149Z,94.40
2018-08-09T14:49:16.309Z,92.80
2018-08-09T14:51:45.081Z,92.40
2018-08-09T14:54:13.893Z,92.30
2018-08-09T14:56:42.685Z,92.30
2018-08-09T14:59:11.393Z,92.20
2018-08-09T15:01:46.749Z,92.30
2018-08-09T15:04:15.598Z,91.80
2018-08-09T15:06:44.265Z,92.70
2018-08-09T15:09:13.313Z,91.80
2018-08-09T15:11:55.248Z,91.90
2018-08-09T15:14:23.986Z,93.50
2018-08-09T15:19:44.006Z,93.90
2018-08-09T15:22:12.681Z,93.80
2018-08-09T15:24:41.649Z,94.00
2018-08-09T15:27:10.504Z,94.30
2018-08-09T15:29:39.197Z,94.30
2018-08-09T15:32:07.985Z,94.40
2018-08-09T15:34:38.797Z,94.70
2018-08-09T15:37:07.617Z,94.30
2018-08-09T15:39:36.305Z,93.90
2018-08-09T15:42:10.205Z,94.60
2018-08-09T15:44:39.573Z,94.30
2018-08-09T15:47:08.340Z,95.10
2018-08-09T15:49:39.357Z,94.90
2018-08-09T15:52:08.341Z,95.20
2018-08-09T15:54:37.121Z,95.00
2018-08-09T15:57:05.848Z,95.70
2018-08-09T15:59:34.537Z,95.70
2018-08-09T16:02:03.339Z,96.10
2018-08-09T16:04:44.668Z,95.70
2018-08-09T16:07:13.530Z,95.80
2018-08-09T16:09:42.233Z,95.60
2018-08-09T16:12:11.018Z,96.10
2018-08-09T16:14:39.825Z,96.20
2018-08-09T16:17:08.933Z,95.70
2018-08-09T16:19:44.345Z,95.80
2018-08-09T16:22:13.177Z,95.90
2018-08-09T16:24:41.912Z,94.40
2018-08-09T16:27:15.770Z,94.40
2018-08-09T16:29:44.496Z,93.40
2018-08-09T16:32:18.317Z,93.10
2018-08-09T16:34:47.113Z,93.10
2018-08-09T16:37:21.781Z,92.60
2018-08-09T16:39:50.477Z,92.40
2018-08-09T16:42:19.219Z,92.70
2018-08-09T16:44:50.045Z,92.20
2018-08-09T16:47:18.835Z,92.20
2018-08-09T16:49:47.538Z,92.70
2018-08-09T16:52:16.249Z,92.90
2018-08-09T16:54:45.097Z,93.10
2018-08-09T16:57:13.801Z,92.40
2018-08-09T16:59:42.584Z,92.60
2018-08-09T17:02:20.593Z,91.90
2018-08-09T17:04:49.357Z,92.40
2018-08-09T17:07:18.116Z,92.40
2018-08-09T17:09:47.040Z,92.80
2018-08-09T17:12:21.312Z,92.40
2018-08-09T17:14:50.077Z,92.50
2018-08-09T17:17:18.824Z,92.50
2018-08-09T17:19:54.297Z,92.30
2018-08-09T17:22:23.041Z,90.50
2018-08-09T17:25:04.154Z,86.90
2018-08-09T17:27:32.886Z,86.50
2018-08-09T17:30:01.553Z,85.40
2018-08-09T17:32:30.397Z,85.80
2018-08-09T17:34:59.141Z,85.20
2018-08-09T17:37:27.929Z,85.30
2018-08-09T17:39:56.686Z,86.60
2018-08-09T17:42:27.509Z,85.50
2018-08-09T17:44:56.165Z,86.30
2018-08-09T17:47:25.073Z,83.50
2018-08-09T17:49:53.849Z,80.80
2018-08-09T17:52:22.666Z,80.30
2018-08-09T17:54:51.348Z,76.10
2018-08-09T17:57:20.273Z,72.00
2018-08-09T17:59:48.931Z,69.40
2018-08-09T18:02:17.769Z,68.60
2018-08-09T18:04:46.414Z,67.70
2018-08-09T18:07:15.181Z,67.60
2018-08-09T18:09:44.033Z,69.70
2018-08-09T18:12:14.480Z,72.20
2018-08-09T18:14:54.153Z,75.00
2018-08-09T18:17:22.961Z,80.20
2018-08-09T18:19:51.729Z,82.70
2018-08-09T18:22:22.557Z,84.20
2018-08-09T18:24:51.761Z,85.70
2018-08-09T18:27:21.524Z,86.40
2018-08-09T18:29:55.304Z,83.80
2018-08-09T18:32:24.010Z,86.60
2018-08-09T18:34:56.862Z,87.60
2018-08-09T18:37:25.565Z,86.80
2018-08-09T18:39:54.333Z,87.00
2018-08-09T18:42:23.333Z,87.20
2018-08-09T18:44:51.954Z,86.10
2018-08-09T18:47:20.764Z,87.10
2018-08-09T18:50:01.467Z,87.00
2018-08-09T18:52:30.219Z,87.60
2018-08-09T18:54:58.934Z,87.80
2018-08-09T18:57:27.587Z,87.30
2018-08-09T18:59:56.498Z,88.00
2018-08-09T19:02:25.274Z,88.20
2018-08-09T19:04:54.185Z,87.20
2018-08-09T19:07:22.912Z,87.90
2018-08-09T19:09:51.746Z,87.70
2018-08-09T19:12:26.785Z,87.20
2018-08-09T19:14:55.533Z,87.00
2018-08-09T19:17:24.313Z,87.40
2018-08-09T19:19:53.277Z,87.40
2018-08-09T19:22:22.065Z,85.90
2018-08-09T19:24:50.826Z,85.30
2018-08-09T19:27:19.693Z,85.30
2018-08-09T19:29:48.309Z,85.40
2018-08-09T19:32:18.116Z,85.90
2018-08-09T19:35:16.699Z,86.90
2018-08-09T19:37:45.501Z,86.10
2018-08-09T19:40:18.337Z,86.20
2018-08-09T19:42:47.109Z,86.40
2018-08-09T19:45:17.033Z,84.50
2018-08-09T19:47:45.759Z,85.50
2018-08-09T19:50:16.382Z,84.70
2018-08-09T19:52:45.277Z,86.80
2018-08-09T19:55:15.505Z,85.60
2018-08-09T19:57:45.464Z,86.30
2018-08-09T20:00:19.544Z,86.60
2018-08-09T20:02:53.745Z,86.40
2018-08-09T20:05:22.961Z,87.10
2018-08-09T20:07:51.669Z,86.20
2018-08-09T20:10:20.466Z,86.70
2018-08-09T20:12:49.563Z,86.70
2018-08-09T20:15:20.381Z,85.70
2018-08-09T20:17:49.266Z,86.50
2018-08-09T20:20:19.789Z,86.00
2018-08-09T20:22:48.670Z,86.30
2018-08-09T20:25:29.832Z,86.70
2018-08-09T20:27:58.641Z,86.30
2018-08-09T20:30:27.401Z,86.90
2018-08-09T20:32:56.087Z,86.70
2018-08-09T20:35:32.553Z,88.20
2018-08-09T20:38:01.495Z,87.50
2018-08-09T20:40:30.381Z,87.20
2018-08-09T20:42:59.471Z,85.50
2018-08-09T20:45:28.256Z,86.00
2018-08-09T20:47:57.071Z,86.50
2018-08-09T20:50:27.870Z,85.90
2018-08-09T20:52:56.605Z,86.90
2018-08-09T20:55:25.475Z,87.10
2018-08-09T20:57:55.537Z,86.10
2018-08-09T21:00:29.173Z,87.00
2018-08-09T21:03:03.225Z,85.80
2018-08-09T21:05:35.542Z,86.40
2018-08-09T21:08:04.789Z,85.50
2018-08-09T21:10:33.546Z,85.30
2018-08-09T21:13:02.292Z,86.70
2018-08-09T21:15:31.246Z,85.80
2018-08-09T21:17:59.882Z,86.40
2018-08-09T21:20:32.934Z,85.80
2018-08-09T21:23:01.781Z,85.60
2018-08-09T21:25:30.554Z,86.30
2018-08-09T21:27:59.346Z,86.70
2018-08-09T21:30:41.416Z,86.00
2018-08-09T21:33:10.237Z,86.10
2018-08-09T21:35:39.049Z,85.90
2018-08-09T21:38:07.767Z,86.30
2018-08-09T21:40:36.705Z,86.20
2018-08-09T21:43:05.505Z,86.30
2018-08-09T21:45:39.297Z,85.90
2018-08-09T21:48:08.090Z,85.80
2018-08-09T21:50:36.850Z,85.60
2018-08-09T21:53:06.024Z,84.80
2018-08-09T21:55:34.744Z,85.00
2018-08-09T21:58:03.993Z,84.50
2018-08-09T22:00:50.256Z,84.30
2018-08-09T22:03:21.014Z,84.70
2018-08-09T22:05:55.173Z,84.40
2018-08-09T22:08:33.566Z,83.70
2018-08-09T22:11:07.809Z,83.60
2018-08-09T22:13:42.124Z,83.80
2018-08-09T22:16:16.478Z,83.80
2018-08-09T22:18:50.791Z,83.40
2018-08-09T22:21:25.019Z,83.50
2018-08-09T22:23:57.816Z,83.80
2018-08-09T22:26:26.617Z,82.60
2018-08-09T22:28:55.493Z,82.90
2018-08-09T22:31:24.296Z,81.70
2018-08-09T22:33:53.085Z,83.00
2018-08-09T22:36:21.917Z,81.40
2018-08-09T22:38:50.688Z,81.40
2018-08-09T22:41:19.613Z,81.40
2018-08-09T22:43:48.629Z,80.50
2018-08-09T22:46:17.471Z,80.80
2018-08-09T22:48:46.311Z,81.90
2018-08-09T22:51:15.062Z,80.30
2018-08-09T22:53:43.780Z,80.70
2018-08-09T22:56:13.552Z,80.80
2018-08-09T22:58:42.272Z,80.30
2018-08-09T23:01:11.192Z,80.70
2018-08-09T23:03:39.969Z,80.10
2018-08-09T23:06:08.659Z,80.70
2018-08-09T23:08:37.458Z,79.70
2018-08-09T23:11:06.490Z,80.70
2018-08-09T23:13:35.172Z,80.00
2018-08-09T23:16:03.889Z,80.00
2018-08-09T23:18:32.821Z,80.80
2018-08-09T23:21:01.569Z,80.70
2018-08-09T23:23:30.437Z,81.60
2018-08-09T23:25:59.134Z,81.30
2018-08-09T23:28:27.850Z,82.00
2018-08-09T23:30:56.625Z,81.30
2018-08-09T23:33:25.713Z,81.70
2018-08-09T23:35:54.736Z,80.60
2018-08-09T23:38:23.569Z,81.60
2018-08-09T23:40:52.212Z,81.40
2018-08-09T23:43:20.877Z,81.40
2018-08-09T23:45:49.765Z,81.70
2018-08-09T23:48:18.501Z,82.10
2018-08-09T23:50:47.320Z,82.00
2018-08-09T23:53:16.241Z,81.90
2018-08-09T23:55:44.890Z,82.00
2018-08-09T23:58:13.689Z,82.10
